Time;durP1;ratioP1;P1;durP2;ratioP2;P2;SDS_P1;SDS_P2;PMS_P1;PMS_P2;Temp;Humidity;BMP_temperature;BMP_pressure;BME280_temperature;BME280_humidity;BME280_pressure;Samples;Min_cycle;Max_cycle;Signal;HPM_P1;HPM_P2
2021/05/02 00:01:43;;;;;;;18.05;11.07;;;7.10;66.40;;;;;;5035888;28;20024;-76
2021/05/02 00:04:08;;;;;;;12.00;10.00;;;7.10;66.10;;;;;;5033989;28;20082;-77
2021/05/02 00:06:34;;;;;;;15.23;10.38;;;7.00;66.50;;;;;;5071511;28;20031;-77
2021/05/02 00:08:59;;;;;;;11.27;9.02;;;7.00;67.20;;;;;;5017355;28;20033;-77
2021/05/02 00:11:25;;;;;;;16.83;11.10;;;6.90;67.10;;;;;;5032654;28;20052;-77
2021/05/02 00:13:51;;;;;;;11.00;8.48;;;6.90;66.40;;;;;;5015348;28;20028;-76
2021/05/02 00:16:16;;;;;;;15.07;11.45;;;7.10;66.00;;;;;;5045101;28;20594;-76
2021/05/02 00:18:42;;;;;;;14.50;11.75;;;6.80;66.60;;;;;;5053165;28;20032;-76
2021/05/02 00:21:09;;;;;;;16.08;12.13;;;6.80;67.70;;;;;;5030585;28;20095;-76
2021/05/02 00:23:35;;;;;;;15.50;11.60;;;6.70;67.90;;;;;;5018419;28;20137;-76
2021/05/02 00:26:01;;;;;;;15.40;11.05;;;6.60;68.00;;;;;;5018233;28;20028;-76
2021/05/02 00:28:26;;;;;;;16.17;12.35;;;6.50;68.70;;;;;;5019361;28;20518;-76
2021/05/02 00:30:52;;;;;;;22.98;12.73;;;6.50;69.00;;;;;;5028564;28;20021;-77
2021/05/02 00:33:18;;;;;;;17.98;12.68;;;6.50;68.30;;;;;;5032711;28;20472;-76
2021/05/02 00:35:43;;;;;;;14.50;11.02;;;6.40;68.90;;;;;;5017866;28;20130;-77
2021/05/02 00:38:09;;;;;;;18.42;13.98;;;6.40;68.70;;;;;;5035991;28;20468;-75
2021/05/02 00:40:36;;;;;;;25.17;13.38;;;6.20;69.70;;;;;;5051887;28;20039;-77
2021/05/02 00:43:34;;;;;;;17.45;12.45;;;6.30;70.00;;;;;;5052198;28;20037;-76
2021/05/02 00:46:09;;;;;;;15.80;11.95;;;6.40;70.30;;;;;;5051194;28;20075;-76
2021/05/02 00:48:59;;;;;;;15.57;11.63;;;6.50;69.00;;;;;;5049310;28;20035;-76
2021/05/02 00:51:25;;;;;;;19.25;14.15;;;6.50;68.70;;;;;;5067883;28;20033;-77
2021/05/02 00:53:53;;;;;;;17.52;13.98;;;6.50;68.20;;;;;;5019133;28;20058;-76
2021/05/02 00:56:24;;;;;;;14.50;12.30;;;6.50;69.20;;;;;;5048010;28;20337;-76
2021/05/02 00:58:59;;;;;;;16.00;10.65;;;6.40;69.20;;;;;;5013477;28;20032;-76
2021/05/02 01:01:25;;;;;;;15.20;10.27;;;6.60;70.60;;;;;;5032223;28;20032;-76
2021/05/02 01:03:51;;;;;;;18.58;12.77;;;6.60;70.40;;;;;;5019385;28;20040;-76
2021/05/02 01:06:20;;;;;;;21.15;14.38;;;6.50;69.70;;;;;;5015314;28;20094;-76
2021/05/02 01:08:46;;;;;;;19.42;13.52;;;6.10;70.90;;;;;;5046747;28;20036;-76
2021/05/02 01:11:12;;;;;;;13.32;10.00;;;6.20;71.20;;;;;;5029133;28;20170;-77
2021/05/02 01:13:40;;;;;;;17.95;13.27;;;6.20;71.40;;;;;;5032081;28;20082;-76
2021/05/02 01:16:06;;;;;;;19.83;15.23;;;6.20;71.00;;;;;;5031439;28;20021;-76
2021/05/02 01:18:31;;;;;;;16.20;10.88;;;6.00;71.80;;;;;;5018405;28;20385;-76
2021/05/02 01:20:57;;;;;;;21.90;14.30;;;6.00;71.40;;;;;;5030455;28;20090;-76
2021/05/02 01:23:27;;;;;;;18.15;12.77;;;5.90;73.30;;;;;;5034711;28;20082;-75
2021/05/02 01:25:57;;;;;;;15.68;11.15;;;5.90;72.20;;;;;;5030770;28;20028;-75
2021/05/02 01:28:23;;;;;;;15.27;10.88;;;5.90;72.40;;;;;;5029382;28;20032;-76
2021/05/02 01:30:48;;;;;;;13.45;9.80;;;6.10;70.60;;;;;;5031161;28;20046;-76
2021/05/02 01:33:14;;;;;;;16.33;11.80;;;5.90;71.70;;;;;;5050916;28;20032;-76
2021/05/02 01:35:40;;;;;;;16.33;12.38;;;6.10;70.90;;;;;;5052022;28;20039;-76
2021/05/02 01:38:06;;;;;;;15.27;10.82;;;5.90;72.70;;;;;;5020670;28;20021;-76
2021/05/02 01:40:31;;;;;;;20.27;14.60;;;6.00;72.40;;;;;;5030491;28;20033;-76
2021/05/02 01:42:57;;;;;;;17.17;11.43;;;6.00;70.60;;;;;;5031281;28;20496;-76
2021/05/02 01:45:22;;;;;;;13.57;9.73;;;6.00;71.30;;;;;;5031535;28;20302;-75
2021/05/02 01:47:49;;;;;;;19.45;13.35;;;5.80;71.90;;;;;;5034473;28;20025;-76
2021/05/02 01:50:14;;;;;;;19.05;13.75;;;5.80;71.20;;;;;;5042763;28;20496;-76
2021/05/02 01:52:53;;;;;;;17.80;12.57;;;5.90;72.10;;;;;;5035285;28;20059;-75
2021/05/02 01:55:18;;;;;;;19.25;13.30;;;5.70;71.50;;;;;;5033997;28;20051;-75
2021/05/02 01:57:45;;;;;;;23.65;16.05;;;5.70;71.60;;;;;;5016839;28;20051;-75
2021/05/02 02:00:20;;;;;;;20.40;16.38;;;5.60;72.70;;;;;;5033051;28;20031;-74
2021/05/02 02:02:46;;;;;;;14.95;10.65;;;5.60;73.30;;;;;;5027499;28;20025;-74
2021/05/02 02:05:12;;;;;;;17.40;11.88;;;5.90;72.30;;;;;;5030740;28;20380;-74
2021/05/02 02:07:37;;;;;;;19.92;13.27;;;6.10;72.20;;;;;;5017431;28;20113;-74
2021/05/02 02:10:03;;;;;;;18.35;10.57;;;6.00;71.00;;;;;;5031624;28;20024;-74
2021/05/02 02:12:29;;;;;;;23.75;15.77;;;5.80;72.40;;;;;;5041589;28;20043;-74
2021/05/02 02:14:55;;;;;;;22.67;14.98;;;5.60;72.30;;;;;;5035605;28;20025;-75
2021/05/02 02:17:20;;;;;;;20.48;13.82;;;5.60;73.30;;;;;;5035874;28;20158;-74
2021/05/02 02:19:46;;;;;;;21.45;14.57;;;5.40;74.30;;;;;;5038283;28;20023;-74
2021/05/02 02:22:12;;;;;;;18.73;12.90;;;5.50;75.30;;;;;;5049050;28;20032;-74
2021/05/02 02:24:43;;;;;;;21.65;15.23;;;5.80;73.00;;;;;;5034803;28;20035;-75
2021/05/02 02:27:09;;;;;;;22.95;15.43;;;5.60;74.00;;;;;;5018196;28;20040;-75
2021/05/02 02:29:48;;;;;;;24.20;16.10;;;5.60;73.50;;;;;;5039453;28;20043;-74
2021/05/02 02:32:16;;;;;;;23.98;15.00;;;5.60;75.30;;;;;;5019376;28;20486;-75
2021/05/02 02:34:46;;;;;;;17.33;11.65;;;5.70;74.00;;;;;;5031122;28;20036;-74
2021/05/02 02:37:17;;;;;;;18.17;12.45;;;6.00;72.60;;;;;;5036736;28;20029;-76
2021/05/02 02:39:50;;;;;;;15.82;10.75;;;5.90;73.60;;;;;;5030736;28;20118;-76
2021/05/02 02:42:16;;;;;;;17.75;11.95;;;5.70;75.40;;;;;;5036793;28;20052;-76
2021/05/02 02:45:05;;;;;;;20.35;14.20;;;6.00;73.80;;;;;;5035276;28;20028;-76
2021/05/02 02:47:50;;;;;;;16.55;12.10;;;5.80;74.80;;;;;;5052677;28;20043;-76
2021/05/02 02:50:17;;;;;;;19.52;12.20;;;5.80;76.00;;;;;;5017665;28;20397;-75
2021/05/02 02:52:50;;;;;;;15.75;10.63;;;5.80;75.40;;;;;;5036263;28;20090;-76
2021/05/02 02:55:17;;;;;;;19.27;10.70;;;5.80;74.20;;;;;;5049409;28;20044;-76
2021/05/02 02:57:51;;;;;;;14.27;9.20;;;5.70;76.10;;;;;;5052743;28;20036;-76
2021/05/02 03:00:21;;;;;;;12.15;8.40;;;5.80;75.70;;;;;;5069625;28;20563;-76
2021/05/02 03:02:50;;;;;;;11.15;8.38;;;5.80;77.00;;;;;;5051608;28;20033;-76
2021/05/02 03:05:19;;;;;;;14.60;8.65;;;5.90;76.70;;;;;;5049831;28;20042;-76
2021/05/02 03:07:44;;;;;;;11.93;7.43;;;6.00;76.70;;;;;;5018248;28;20048;-76
2021/05/02 03:10:10;;;;;;;12.73;8.23;;;6.00;76.20;;;;;;5018647;28;20040;-76
2021/05/02 03:12:37;;;;;;;16.70;7.80;;;6.10;74.80;;;;;;5031589;28;20024;-76
2021/05/02 03:15:03;;;;;;;12.50;7.38;;;6.00;76.60;;;;;;5014168;28;20028;-76
2021/05/02 03:17:29;;;;;;;11.45;7.40;;;6.10;76.00;;;;;;5012481;28;20489;-76
2021/05/02 03:20:02;;;;;;;10.40;7.35;;;6.20;75.10;;;;;;5030674;28;20024;-77
2021/05/02 03:22:52;;;;;;;13.65;7.75;;;6.10;75.00;;;;;;5032111;28;20033;-76
2021/05/02 03:25:22;;;;;;;11.15;8.07;;;6.10;75.50;;;;;;5018986;28;20063;-76
2021/05/02 03:27:58;;;;;;;9.65;6.53;;;6.10;76.30;;;;;;5035703;28;20353;-76
2021/05/02 03:30:24;;;;;;;9.57;6.88;;;6.10;75.60;;;;;;5044263;28;20365;-76
2021/05/02 03:32:51;;;;;;;18.05;9.68;;;6.20;75.50;;;;;;5035202;28;20078;-76
2021/05/02 03:35:18;;;;;;;15.88;9.45;;;6.20;76.40;;;;;;5030215;28;20755;-76
2021/05/02 03:37:51;;;;;;;14.55;9.35;;;6.20;75.80;;;;;;5052746;28;20036;-76
2021/05/02 03:40:17;;;;;;;14.77;9.30;;;6.40;74.20;;;;;;5048793;28;20379;-76
2021/05/02 03:42:42;;;;;;;12.90;9.25;;;6.50;73.50;;;;;;5052778;28;20498;-76
2021/05/02 03:45:08;;;;;;;13.98;10.27;;;6.40;73.60;;;;;;5048754;28;20020;-76
2021/05/02 03:47:34;;;;;;;16.05;10.27;;;6.40;74.40;;;;;;5017152;28;20029;-76
2021/05/02 03:49:59;;;;;;;18.48;9.98;;;6.50;74.30;;;;;;5013124;28;20495;-76
2021/05/02 03:52:25;;;;;;;19.65;13.00;;;6.60;74.40;;;;;;5013719;28;20047;-76
2021/05/02 03:54:52;;;;;;;18.38;13.02;;;6.60;74.00;;;;;;5036121;28;20035;-76
2021/05/02 03:57:17;;;;;;;17.60;11.18;;;6.60;75.00;;;;;;5034432;28;20053;-76
2021/05/02 03:59:43;;;;;;;12.10;8.77;;;6.60;74.40;;;;;;5039401;28;20031;-76
2021/05/02 04:02:08;;;;;;;19.95;11.90;;;6.70;74.00;;;;;;5050028;28;20036;-76
2021/05/02 04:04:34;;;;;;;10.73;7.28;;;6.70;74.20;;;;;;5050723;28;20491;-76
2021/05/02 04:07:04;;;;;;;15.00;9.95;;;6.70;74.10;;;;;;5028239;28;20028;-76
2021/05/02 04:09:30;;;;;;;21.00;13.57;;;6.70;74.40;;;;;;4321408;28;10001332;-76
2021/05/02 04:11:56;;;;;;;21.10;12.35;;;6.60;74.00;;;;;;5024522;28;20032;-76
2021/05/02 04:14:22;;;;;;;12.02;8.23;;;6.70;75.40;;;;;;5012772;28;20377;-76
2021/05/02 04:17:12;;;;;;;20.73;12.57;;;6.70;74.90;;;;;;5045040;28;20028;-77
2021/05/02 04:19:45;;;;;;;11.85;8.57;;;6.80;74.60;;;;;;5022805;28;20067;-76
2021/05/02 04:22:12;;;;;;;12.60;6.90;;;6.90;74.40;;;;;;5012424;28;20036;-77
2021/05/02 04:24:38;;;;;;;18.27;11.82;;;7.00;73.40;;;;;;5047892;28;20039;-76
2021/05/02 04:27:03;;;;;;;22.50;14.15;;;7.00;73.50;;;;;;5048889;28;20471;-76
2021/05/02 04:29:30;;;;;;;18.67;11.07;;;6.90;74.50;;;;;;5028189;28;20128;-76
2021/05/02 04:31:55;;;;;;;13.00;7.63;;;6.90;74.20;;;;;;5032641;28;20024;-77
2021/05/02 04:34:21;;;;;;;21.60;12.73;;;7.00;73.80;;;;;;5008280;28;20043;-77
2021/05/02 04:36:47;;;;;;;14.95;10.15;;;6.90;74.60;;;;;;5052107;28;20433;-77
2021/05/02 04:39:13;;;;;;;17.58;12.18;;;7.00;73.70;;;;;;5045275;28;20466;-77
2021/05/02 04:41:38;;;;;;;21.02;12.85;;;6.90;74.40;;;;;;5048830;28;20479;-76
2021/05/02 04:44:04;;;;;;;18.30;11.23;;;6.90;74.80;;;;;;5043163;28;20384;-77
2021/05/02 04:46:30;;;;;;;17.25;12.02;;;6.80;74.80;;;;;;5045027;28;20385;-77
2021/05/02 04:48:55;;;;;;;14.30;10.07;;;6.70;75.40;;;;;;5029676;28;20062;-77
2021/05/02 04:51:21;;;;;;;15.30;10.25;;;6.70;74.90;;;;;;5031029;28;20052;-77
2021/05/02 04:53:47;;;;;;;13.00;8.40;;;6.80;74.10;;;;;;5032018;28;20052;-77
2021/05/02 04:56:13;;;;;;;12.68;9.95;;;6.80;74.60;;;;;;5046021;28;20075;-77
2021/05/02 04:58:38;;;;;;;19.85;11.73;;;6.90;74.50;;;;;;5044493;28;20024;-77
2021/05/02 05:01:04;;;;;;;16.35;10.40;;;6.90;74.90;;;;;;5026022;28;20437;-77
2021/05/02 05:03:31;;;;;;;13.35;9.75;;;6.80;74.50;;;;;;5018713;28;20395;-77
2021/05/02 05:05:57;;;;;;;17.98;9.52;;;7.00;73.80;;;;;;5027636;28;20055;-77
2021/05/02 05:08:22;;;;;;;20.05;11.35;;;7.00;73.80;;;;;;5030228;28;20127;-77
2021/05/02 05:10:48;;;;;;;14.23;8.77;;;6.90;73.80;;;;;;5049643;28;20111;-77
2021/05/02 05:13:13;;;;;;;19.75;11.98;;;7.00;73.70;;;;;;5029745;28;20551;-77
2021/05/02 05:15:39;;;;;;;17.85;10.48;;;7.00;74.10;;;;;;5066724;28;20035;-77
2021/05/02 05:18:04;;;;;;;23.92;13.82;;;6.80;74.30;;;;;;5031358;28;20044;-77
2021/05/02 05:20:30;;;;;;;19.60;11.18;;;6.80;75.10;;;;;;5030963;28;20595;-77
2021/05/02 05:22:55;;;;;;;14.30;8.80;;;6.80;74.50;;;;;;5011569;28;20421;-77
2021/05/02 05:25:21;;;;;;;15.57;9.90;;;6.90;74.80;;;;;;5032568;28;20722;-76
2021/05/02 05:27:46;;;;;;;15.82;9.05;;;7.00;74.00;;;;;;5047659;28;20033;-77
2021/05/02 05:30:12;;;;;;;13.57;9.20;;;7.10;73.80;;;;;;5010488;28;20044;-76
2021/05/02 05:32:38;;;;;;;15.45;9.10;;;7.00;74.10;;;;;;5067466;28;20020;-77
2021/05/02 05:35:04;;;;;;;17.60;9.75;;;7.00;74.90;;;;;;5045619;28;20119;-77
2021/05/02 05:37:30;;;;;;;14.77;8.85;;;6.80;76.00;;;;;;5031199;28;20066;-77
2021/05/02 05:39:55;;;;;;;14.65;9.88;;;6.90;75.30;;;;;;5028239;28;20559;-76
2021/05/02 05:42:21;;;;;;;14.20;9.40;;;6.80;76.10;;;;;;5033127;28;20029;-77
2021/05/02 05:44:46;;;;;;;14.40;7.82;;;6.80;76.10;;;;;;5048621;28;20052;-77
2021/05/02 05:47:12;;;;;;;12.65;7.15;;;6.80;76.00;;;;;;5043942;28;20044;-77
2021/05/02 05:49:39;;;;;;;16.17;6.95;;;6.80;76.40;;;;;;5031391;28;20456;-77
2021/05/02 05:52:06;;;;;;;9.30;5.70;;;6.80;76.60;;;;;;5014350;28;20496;-77
2021/05/02 05:54:32;;;;;;;14.20;6.65;;;7.00;75.60;;;;;;5028895;28;20033;-77
2021/05/02 05:56:57;;;;;;;10.65;5.93;;;6.90;76.70;;;;;;5026431;28;20486;-78
2021/05/02 05:59:23;;;;;;;8.93;5.57;;;7.00;75.80;;;;;;5026542;28;20461;-77
2021/05/02 06:01:49;;;;;;;8.90;4.70;;;7.00;76.30;;;;;;5027175;28;20027;-77
2021/05/02 06:04:15;;;;;;;12.07;5.05;;;7.00;76.00;;;;;;5030158;28;20047;-77
2021/05/02 06:06:41;;;;;;;9.90;5.45;;;7.00;77.10;;;;;;5050385;28;20468;-77
2021/05/02 06:09:07;;;;;;;7.32;4.45;;;7.00;76.60;;;;;;5045082;28;20020;-77
2021/05/02 06:11:32;;;;;;;8.18;4.72;;;7.20;75.40;;;;;;5016871;28;20534;-77
2021/05/02 06:13:58;;;;;;;11.38;5.22;;;7.10;76.40;;;;;;5027521;28;20072;-77
2021/05/02 06:16:24;;;;;;;6.82;4.88;;;7.20;75.30;;;;;;5047125;28;20044;-77
2021/05/02 06:18:53;;;;;;;6.72;5.25;;;7.20;75.90;;;;;;5049387;28;20032;-77
2021/05/02 06:21:19;;;;;;;8.20;4.90;;;7.20;75.90;;;;;;5026259;28;20063;-77
2021/05/02 06:23:48;;;;;;;9.02;5.05;;;7.20;77.00;;;;;;5047079;28;20040;-77
2021/05/02 06:26:15;;;;;;;6.40;3.80;;;7.30;75.50;;;;;;5017521;28;20028;-77
2021/05/02 06:28:41;;;;;;;9.27;4.68;;;7.40;74.80;;;;;;5014870;28;20032;-77
2021/05/02 06:31:07;;;;;;;6.32;4.20;;;7.50;76.20;;;;;;5046749;28;20484;-77
2021/05/02 06:33:34;;;;;;;8.60;5.03;;;7.60;75.00;;;;;;5026722;28;20025;-77
2021/05/02 06:35:59;;;;;;;6.90;4.00;;;7.60;75.80;;;;;;5028255;28;20219;-77
2021/05/02 06:38:25;;;;;;;7.45;4.30;;;7.80;77.00;;;;;;5015753;28;20127;-77
2021/05/02 06:40:50;;;;;;;13.13;4.63;;;7.90;76.30;;;;;;5047933;28;20551;-77
2021/05/02 06:43:16;;;;;;;5.22;3.35;;;8.00;76.10;;;;;;5031698;28;20043;-77
2021/05/02 06:45:41;;;;;;;6.07;4.30;;;8.10;74.80;;;;;;5033362;28;23230;-76
2021/05/02 06:48:07;;;;;;;8.25;4.03;;;8.30;76.10;;;;;;5030877;28;20062;-76
2021/05/02 06:50:33;;;;;;;10.10;4.00;;;8.40;76.40;;;;;;5012244;28;20117;-77
2021/05/02 06:52:58;;;;;;;6.63;3.67;;;8.60;76.10;;;;;;5027574;28;20029;-76
2021/05/02 06:55:24;;;;;;;8.75;4.07;;;8.70;75.40;;;;;;5015185;28;20559;-76
2021/05/02 06:57:49;;;;;;;7.93;3.60;;;8.90;76.20;;;;;;5049200;28;20040;-77
2021/05/02 07:00:16;;;;;;;8.63;3.38;;;9.00;74.30;;;;;;5025737;28;20044;-77
2021/05/02 07:02:41;;;;;;;15.30;4.50;;;9.20;75.10;;;;;;5033898;28;20582;-77
2021/05/02 07:05:07;;;;;;;7.38;3.65;;;9.40;74.90;;;;;;5017874;28;20488;-76
2021/05/02 07:07:33;;;;;;;7.82;3.50;;;9.50;74.80;;;;;;5033777;28;20455;-78
2021/05/02 07:09:58;;;;;;;15.57;5.50;;;9.70;74.60;;;;;;5029970;28;20079;-77
2021/05/02 07:12:25;;;;;;;4.18;3.05;;;9.80;73.20;;;;;;5031837;28;20369;-77
2021/05/02 07:14:50;;;;;;;6.93;3.88;;;9.90;73.00;;;;;;5034732;28;20495;-76
2021/05/02 07:17:16;;;;;;;6.03;3.42;;;10.00;71.60;;;;;;5030659;28;20101;-77
2021/05/02 07:19:42;;;;;;;5.38;3.40;;;10.20;72.20;;;;;;5036356;28;20032;-77
2021/05/02 07:22:07;;;;;;;8.02;3.88;;;10.30;70.90;;;;;;5070428;28;20024;-78
2021/05/02 07:24:33;;;;;;;6.13;2.90;;;10.30;70.30;;;;;;5018704;28;20044;-78
2021/05/02 07:26:59;;;;;;;6.55;3.45;;;10.30;70.60;;;;;;5016150;28;20095;-77
2021/05/02 07:29:24;;;;;;;6.80;2.58;;;10.50;70.60;;;;;;5015801;28;20083;-77
2021/05/02 07:31:50;;;;;;;8.75;2.78;;;10.60;69.70;;;;;;5033471;28;20174;-77
2021/05/02 07:34:15;;;;;;;7.63;2.88;;;10.60;69.10;;;;;;5028037;28;20041;-77
2021/05/02 07:36:41;;;;;;;11.73;3.38;;;10.70;70.90;;;;;;5033110;28;20128;-77
2021/05/02 07:39:07;;;;;;;9.60;2.80;;;10.80;69.50;;;;;;5028561;28;20548;-78
2021/05/02 07:41:32;;;;;;;5.38;2.55;;;11.00;68.60;;;;;;5020552;28;20051;-78
2021/05/02 07:43:58;;;;;;;7.47;3.33;;;11.00;67.60;;;;;;5028492;28;20024;-77
2021/05/02 07:46:24;;;;;;;7.72;2.80;;;11.10;69.10;;;;;;5026241;28;20392;-77
2021/05/02 07:48:49;;;;;;;5.25;2.95;;;11.30;69.10;;;;;;5050527;28;20117;-77
2021/05/02 07:51:15;;;;;;;5.38;2.72;;;11.60;68.90;;;;;;5028294;28;20037;-77
2021/05/02 07:53:40;;;;;;;5.60;2.58;;;11.80;67.00;;;;;;5028118;28;20058;-77
2021/05/02 07:56:06;;;;;;;6.03;2.53;;;11.90;66.40;;;;;;5032661;28;20036;-77
2021/05/02 07:58:31;;;;;;;5.72;2.38;;;11.80;66.40;;;;;;5018243;28;20501;-77
2021/05/02 08:00:57;;;;;;;4.97;2.85;;;12.00;67.60;;;;;;5017356;28;20079;-78
2021/05/02 08:03:23;;;;;;;6.20;2.67;;;12.00;66.30;;;;;;5033259;28;20372;-77
2021/05/02 08:05:48;;;;;;;4.85;2.50;;;12.20;65.50;;;;;;5017915;28;20025;-76
2021/05/02 08:08:14;;;;;;;4.53;2.25;;;12.30;67.50;;;;;;5044450;28;20124;-77
2021/05/02 08:10:39;;;;;;;5.47;2.90;;;12.60;67.20;;;;;;5034395;28;20036;-76
2021/05/02 08:13:05;;;;;;;3.17;1.75;;;12.80;66.70;;;;;;5044934;28;20028;-77
2021/05/02 08:15:30;;;;;;;4.80;1.80;;;12.90;64.50;;;;;;5047328;28;20032;-77
2021/05/02 08:18:01;;;;;;;5.13;1.88;;;12.80;65.40;;;;;;5030693;28;20404;-77
2021/05/02 08:20:26;;;;;;;5.80;1.98;;;13.10;64.70;;;;;;5016319;28;20093;-77
2021/05/02 08:22:52;;;;;;;6.55;2.20;;;13.30;59.70;;;;;;5032592;28;20728;-77
2021/05/02 08:25:17;;;;;;;9.15;2.47;;;13.20;59.80;;;;;;5024952;28;20032;-78
2021/05/02 08:27:44;;;;;;;3.97;2.30;;;13.20;61.00;;;;;;5069310;28;20028;-78
2021/05/02 08:30:09;;;;;;;4.88;2.45;;;13.40;62.10;;;;;;5045723;28;20028;-78
2021/05/02 08:32:36;;;;;;;5.10;2.67;;;13.40;61.30;;;;;;5017580;28;20039;-78
2021/05/02 08:35:03;;;;;;;3.72;1.77;;;13.40;61.50;;;;;;5033878;28;20146;-78
2021/05/02 08:37:29;;;;;;;3.92;2.00;;;13.40;61.30;;;;;;5032879;28;20035;-78
2021/05/02 08:39:55;;;;;;;6.15;2.42;;;13.40;60.60;;;;;;5035040;28;20025;-78
2021/05/02 08:42:20;;;;;;;7.60;2.67;;;13.40;60.60;;;;;;5047971;28;20027;-78
2021/05/02 08:44:49;;;;;;;5.07;1.95;;;13.60;61.50;;;;;;5048406;28;20040;-78
2021/05/02 08:47:14;;;;;;;7.28;2.40;;;14.00;59.10;;;;;;5039760;28;20041;-78
2021/05/02 08:49:43;;;;;;;4.07;2.40;;;14.00;58.90;;;;;;5032121;28;20032;-78
2021/05/02 08:52:09;;;;;;;3.20;1.92;;;14.10;58.80;;;;;;5052572;28;20061;-78
2021/05/02 08:54:34;;;;;;;5.18;2.58;;;14.20;59.60;;;;;;5017752;28;20036;-78
2021/05/02 08:57:00;;;;;;;7.35;2.13;;;14.30;59.10;;;;;;5034357;28;20032;-78
2021/05/02 08:59:25;;;;;;;6.13;2.10;;;14.20;59.00;;;;;;5030309;28;20037;-78
2021/05/02 09:01:54;;;;;;;6.45;2.28;;;14.10;58.10;;;;;;5037226;28;20458;-77
2021/05/02 09:04:20;;;;;;;4.53;2.08;;;13.90;58.50;;;;;;5018246;28;20479;-78
2021/05/02 09:06:45;;;;;;;4.10;1.95;;;14.00;58.00;;;;;;5053713;28;20024;-78
2021/05/02 09:09:12;;;;;;;6.03;2.08;;;14.10;58.70;;;;;;5018099;28;20786;-78
2021/05/02 09:11:38;;;;;;;4.80;1.70;;;14.40;57.20;;;;;;5031913;28;20488;-78
2021/05/02 09:14:06;;;;;;;4.72;1.65;;;14.50;57.30;;;;;;5048977;28;20032;-78
2021/05/02 09:16:47;;;;;;;8.00;1.67;;;14.80;57.10;;;;;;5020964;28;20032;-78
2021/05/02 09:19:13;;;;;;;4.25;2.00;;;15.10;57.50;;;;;;5050321;28;20056;-78
2021/05/02 09:21:38;;;;;;;6.15;2.30;;;15.30;55.50;;;;;;5030502;28;20055;-78
2021/05/02 09:24:07;;;;;;;6.28;1.80;;;15.30;53.80;;;;;;5050386;28;20071;-78
2021/05/02 09:26:35;;;;;;;9.05;2.42;;;15.10;53.80;;;;;;5046354;28;20040;-78
2021/05/02 09:29:05;;;;;;;7.50;2.17;;;15.10;54.10;;;;;;5053038;28;20085;-79
2021/05/02 09:31:32;;;;;;;4.68;1.90;;;15.00;54.90;;;;;;5046346;28;20032;-78
2021/05/02 09:34:17;;;;;;;5.00;2.00;;;14.80;55.30;;;;;;5036891;28;20434;-78
2021/05/02 09:36:57;;;;;;;6.45;1.98;;;14.90;54.70;;;;;;5032958;28;20032;-78
2021/05/02 09:39:48;;;;;;;5.55;1.55;;;15.00;55.50;;;;;;5037219;28;20115;-78
2021/05/02 09:42:21;;;;;;;6.97;2.08;;;15.10;55.30;;;;;;5026964;28;20041;-78
2021/05/02 09:44:54;;;;;;;4.68;2.05;;;15.10;54.90;;;;;;5044502;28;20036;-78
2021/05/02 09:47:38;;;;;;;3.50;1.40;;;15.20;53.70;;;;;;5034788;28;20059;-78
2021/05/02 09:50:08;;;;;;;1.67;1.30;;;15.30;54.20;;;;;;5013191;28;20103;-78
2021/05/02 09:52:48;;;;;;;5.47;2.10;;;15.40;53.40;;;;;;5049677;28;20399;-79
2021/05/02 09:55:19;;;;;;;3.13;1.25;;;15.40;53.70;;;;;;5035246;28;20036;-78
2021/05/02 09:57:55;;;;;;;4.28;1.77;;;15.70;53.90;;;;;;5043980;28;20036;-78
2021/05/02 10:00:31;;;;;;;1.70;1.60;;;15.70;52.90;;;;;;5050729;28;20025;-78
2021/05/02 10:02:58;;;;;;;3.38;1.92;;;15.80;52.60;;;;;;5035722;28;20049;-79
2021/05/02 10:05:23;;;;;;;4.38;1.17;;;16.00;52.20;;;;;;5051440;28;20117;-79
2021/05/02 10:07:49;;;;;;;3.70;1.45;;;16.30;52.10;;;;;;5035228;28;20041;-79
2021/05/02 10:10:16;;;;;;;2.70;1.15;;;16.50;52.20;;;;;;5035492;28;20060;-78
2021/05/02 10:12:41;;;;;;;2.15;1.40;;;16.60;51.20;;;;;;5029588;28;20507;-79
2021/05/02 10:15:10;;;;;;;3.60;1.40;;;16.60;52.00;;;;;;5033994;28;20028;-78
2021/05/02 10:17:36;;;;;;;5.93;1.88;;;16.60;50.40;;;;;;5046494;28;20032;-78
2021/05/02 10:20:02;;;;;;;4.75;1.33;;;16.40;49.90;;;;;;5034439;28;20514;-79
2021/05/02 10:22:27;;;;;;;4.32;2.13;;;16.30;48.20;;;;;;5030173;28;20116;-78
2021/05/02 10:24:53;;;;;;;3.22;1.50;;;16.00;49.10;;;;;;5054696;28;20488;-78
2021/05/02 10:27:18;;;;;;;3.45;1.23;;;16.00;49.50;;;;;;5018420;28;20288;-76
2021/05/02 10:29:48;;;;;;;2.08;1.13;;;16.00;49.40;;;;;;5053394;28;20036;-78
2021/05/02 10:32:15;;;;;;;6.85;1.45;;;16.10;48.20;;;;;;5037970;28;20369;-78
2021/05/02 10:34:43;;;;;;;3.50;1.20;;;16.10;48.40;;;;;;5048992;28;20032;-78
2021/05/02 10:37:24;;;;;;;5.18;1.20;;;16.20;48.90;;;;;;5038225;28;20238;-78
2021/05/02 10:40:20;;;;;;;3.95;1.33;;;16.10;47.90;;;;;;5073882;28;20032;-78
2021/05/02 10:42:50;;;;;;;4.10;1.40;;;16.30;48.60;;;;;;5050838;28;20028;-78
2021/05/02 10:45:33;;;;;;;3.67;0.85;;;16.60;46.60;;;;;;5035421;28;20757;-78
2021/05/02 10:48:08;;;;;;;1.98;0.90;;;16.60;46.10;;;;;;5072011;28;20129;-78
2021/05/02 10:50:34;;;;;;;3.33;1.73;;;16.50;45.50;;;;;;5021773;28;20049;-78
2021/05/02 10:53:00;;;;;;;2.50;1.40;;;16.30;46.30;;;;;;5074629;28;20040;-79
2021/05/02 10:55:28;;;;;;;5.05;1.10;;;16.30;46.40;;;;;;5048536;28;20033;-78
2021/05/02 10:58:03;;;;;;;2.08;1.10;;;16.40;47.00;;;;;;5051137;28;20123;-79
2021/05/02 11:00:38;;;;;;;3.38;0.93;;;16.70;46.00;;;;;;5022101;28;20487;-78
2021/05/02 11:03:03;;;;;;;3.72;1.33;;;17.00;44.70;;;;;;5037724;28;20372;-78
2021/05/02 11:05:29;;;;;;;3.35;1.20;;;17.20;45.60;;;;;;5021648;28;20054;-79
2021/05/02 11:07:58;;;;;;;8.95;1.20;;;17.20;44.00;;;;;;5021165;28;20059;-79
2021/05/02 11:10:23;;;;;;;3.67;1.20;;;17.30;43.50;;;;;;5045035;28;20045;-78
2021/05/02 11:12:49;;;;;;;3.65;1.58;;;17.20;43.60;;;;;;5057221;28;20059;-79
2021/05/02 11:15:32;;;;;;;1.50;1.00;;;17.00;44.90;;;;;;4321040;28;10000895;-79
2021/05/02 11:17:57;;;;;;;4.00;1.60;;;17.10;45.10;;;;;;5035188;28;20634;-79
2021/05/02 11:20:48;;;;;;;6.13;1.90;;;17.10;45.00;;;;;;5051196;28;20434;-79
2021/05/02 11:23:14;;;;;;;2.72;1.35;;;17.00;44.70;;;;;;5049970;28;20037;-80
2021/05/02 11:25:43;;;;;;;2.42;1.33;;;17.30;44.70;;;;;;5037043;28;20569;-77
2021/05/02 11:28:10;;;;;;;4.80;1.23;;;17.20;45.10;;;;;;5050509;28;20484;-79
2021/05/02 11:30:36;;;;;;;2.85;1.35;;;17.30;44.70;;;;;;5013638;28;20460;-79
2021/05/02 11:33:02;;;;;;;2.65;0.90;;;17.60;44.00;;;;;;5043367;28;20037;-78
2021/05/02 11:35:41;;;;;;;1.83;1.30;;;17.80;43.70;;;;;;5023059;28;20044;-79
2021/05/02 11:38:10;;;;;;;2.72;1.08;;;17.90;43.60;;;;;;5051269;28;20061;-79
2021/05/02 11:40:36;;;;;;;3.45;0.80;;;17.90;42.40;;;;;;5030508;28;20036;-79
2021/05/02 11:43:07;;;;;;;3.58;1.33;;;17.60;42.80;;;;;;5051712;28;20395;-79
2021/05/02 11:45:47;;;;;;;5.55;1.17;;;17.40;42.30;;;;;;5033837;28;20527;-80
2021/05/02 11:48:28;;;;;;;1.92;1.35;;;17.30;42.80;;;;;;5048062;28;20487;-79
2021/05/02 11:51:00;;;;;;;2.03;1.27;;;17.10;42.70;;;;;;4694128;28;10000083;-79
2021/05/02 11:53:46;;;;;;;5.05;1.40;;;17.00;42.60;;;;;;5024236;28;20224;-79
2021/05/02 11:56:13;;;;;;;3.88;1.35;;;16.90;42.90;;;;;;5054541;28;20090;-79
2021/05/02 11:58:39;;;;;;;4.00;1.40;;;17.10;43.40;;;;;;5050519;28;20111;-79
2021/05/02 12:01:05;;;;;;;1.63;1.00;;;16.90;43.30;;;;;;5048947;28;20132;-78
2021/05/02 12:03:36;;;;;;;1.23;1.05;;;17.20;43.60;;;;;;5021172;28;20032;-78
2021/05/02 12:06:02;;;;;;;3.80;1.50;;;17.20;42.30;;;;;;5020250;28;20072;-79
2021/05/02 12:08:28;;;;;;;2.92;1.58;;;16.90;43.40;;;;;;5040297;28;20036;-78
2021/05/02 12:10:58;;;;;;;2.13;1.42;;;17.30;43.00;;;;;;5037112;28;20036;-78
2021/05/02 12:13:30;;;;;;;3.35;1.38;;;17.40;42.20;;;;;;5019617;28;20571;-78
2021/05/02 12:15:59;;;;;;;2.50;1.20;;;17.40;42.90;;;;;;5048929;28;20032;-78
2021/05/02 12:18:54;;;;;;;7.45;1.25;;;17.10;42.90;;;;;;5047047;28;20033;-78
2021/05/02 12:21:22;;;;;;;2.88;1.42;;;17.30;42.90;;;;;;5037310;28;20051;-79
2021/05/02 12:23:48;;;;;;;5.85;1.33;;;17.50;42.70;;;;;;5037108;28;20086;-79
2021/05/02 12:26:16;;;;;;;4.03;1.25;;;17.50;43.00;;;;;;5021753;28;20028;-79
2021/05/02 12:28:41;;;;;;;3.38;1.55;;;17.70;43.30;;;;;;5019561;28;20047;-79
2021/05/02 12:31:07;;;;;;;4.07;1.60;;;18.10;43.20;;;;;;5014825;28;20028;-78
2021/05/02 12:33:39;;;;;;;6.80;1.50;;;18.10;41.70;;;;;;5019849;28;20549;-78
2021/05/02 12:36:12;;;;;;;3.97;1.60;;;18.00;42.40;;;;;;5018876;28;20242;-78
2021/05/02 12:38:39;;;;;;;4.85;1.27;;;18.20;41.80;;;;;;5022842;28;20023;-78
2021/05/02 12:41:05;;;;;;;4.05;1.83;;;18.30;42.00;;;;;;5036257;28;20035;-78
2021/05/02 12:43:32;;;;;;;5.25;1.55;;;18.20;41.30;;;;;;5034010;28;20036;-79
2021/05/02 12:45:58;;;;;;;2.67;1.23;;;18.20;41.00;;;;;;5053645;28;20089;-79
2021/05/02 12:48:30;;;;;;;2.40;1.58;;;17.80;41.50;;;;;;5032290;28;20043;-78
2021/05/02 12:50:56;;;;;;;5.18;1.45;;;17.50;41.60;;;;;;5036482;28;20057;-78